Bretagne — FNBR — position and weather

sailwx.info

Track history (hours):
 
Tides and Currents Weather Stations Pressure Air Temp Water Temp Dewpoint Dewpoint Depression Visibility Wind Speed Wind Dir Waves Ship Positions

Bretagne

Operator: Brittany Ferries

Last reported at 2015-Mar-06 22:23 UTC. Time now 2015-Mar-07 01:46 UTC.
Position N 50°18' W 004°10'.

Length 151 m; beam 27 m.

Type: Ship. MMSI: 227286000.

Date/timePositionNaut miles runAvg speedWind from/ knotsBaromVisibWave heightAir tempDewpointWater temp
2015-Mar-06 22:23N 50°18' W 004°10'4 4.4
2015-Mar-06 21:30N 50°22' W 004°09'0 0.0
2015-Mar-06 20:24N 50°22' W 004°09'4 0.2
2015-Mar-05 21:25N 50°18' W 004°10'4 3.6
2015-Mar-05 20:24N 50°22' W 004°09'0 0.0
2015-Mar-05 19:34N 50°22' W 004°09'1 1.3
2015-Mar-05 18:33N 50°20' W 004°09'101 5.2
2015-Mar-04 23:13N 50°18' W 001°30'1014.8
2015-Mar-04 22:33N 50°25' W 001°20'1413.9
2015-Mar-04 21:33N 50°36' W 001°08'1110.8
2015-Mar-04 20:33N 50°47' W 001°06'2 1.8
2015-Mar-04 19:32N 50°49' W 001°06'0 0.0
2015-Mar-04 18:32N 50°49' W 001°06'0 0.0
2015-Mar-04 17:32N 50°49' W 001°06'0 0.0
2015-Mar-04 16:32N 50°49' W 001°06'0 0.0
2015-Mar-04 15:32N 50°49' W 001°06'0 0.0
2015-Mar-04 14:32N 50°49' W 001°06'0 0.0
2015-Mar-04 13:32N 50°49' W 001°06'0 0.0
2015-Mar-04 12:32N 50°49' W 001°06'0 0.0
2015-Mar-04 11:32N 50°49' W 001°06'0 0.0
2015-Mar-04 10:32N 50°49' W 001°06'0 0.0
2015-Mar-04 09:32N 50°49' W 001°06'0 0.0
2015-Mar-04 08:32N 50°49' W 001°06'0 0.0
2015-Mar-04 07:33N 50°49' W 001°06'1110.8
2015-Mar-04 06:33N 50°38' W 001°06'1715.6
2015-Mar-04 05:29N 50°24' W 001°20'58 1.8
2015-Mar-02 20:32N 49°35' W 000°30'1212.7
2015-Mar-02 19:33N 49°31' W 000°12'1413.5
2015-Mar-02 18:33N 49°28' E 000°08'2 1.7
2015-Mar-02 17:33N 49°29' E 000°11'1 0.6
2015-Mar-02 16:33N 49°28' E 000°11'0 0.0
2015-Mar-02 15:33N 49°28' E 000°11'0 0.0
2015-Mar-02 14:33N 49°28' E 000°11'0 0.0
2015-Mar-02 13:33N 49°28' E 000°11'0 0.0
2015-Mar-02 12:33N 49°28' E 000°11'0 0.0
2015-Mar-02 11:33N 49°28' E 000°11'0 0.0
2015-Mar-02 10:33N 49°28' E 000°11'0 0.0
2015-Mar-02 09:33N 49°28' E 000°11'0 0.0
2015-Mar-02 08:33N 49°28' E 000°11'0 0.0
2015-Mar-02 07:33N 49°28' E 000°11'0 0.0
2015-Mar-02 06:33N 49°28' E 000°11'0 0.0
2015-Mar-02 05:33N 49°28' E 000°11'0 0.0
2015-Mar-02 04:33N 49°28' E 000°11'0 0.0
2015-Mar-02 03:33N 49°28' E 000°11'0 0.0
2015-Mar-02 02:33N 49°28' E 000°11'0 0.0
2015-Mar-02 01:33N 49°28' E 000°11'0 0.0
2015-Mar-02 00:33N 49°28' E 000°11'0 0.0
2015-Mar-01 23:33N 49°28' E 000°11'0 0.0
2015-Mar-01 22:28N 49°28' E 000°11'0 0.0
2015-Mar-01 21:33N 49°28' E 000°11'0 0.0
2015-Mar-01 20:33N 49°28' E 000°11'0 0.0
2015-Mar-01 19:33N 49°28' E 000°11'0 0.0
2015-Mar-01 18:33N 49°28' E 000°11'0 0.0
2015-Mar-01 17:33N 49°28' E 000°11'0 0.0
2015-Mar-01 16:33N 49°28' E 000°11'0 0.0
2015-Mar-01 15:33N 49°28' E 000°11'0 0.0
2015-Mar-01 14:33N 49°28' E 000°11'0 0.0
2015-Mar-01 13:33N 49°28' E 000°11'0 0.0
2015-Mar-01 12:33N 49°28' E 000°11'0 0.0
2015-Mar-01 11:33N 49°28' E 000°11'0 0.0
2015-Mar-01 10:33N 49°28' E 000°11'0 0.0
2015-Mar-01 09:33N 49°28' E 000°11'0 0.0
2015-Mar-01 08:33N 49°28' E 000°11'0 0.0
2015-Mar-01 07:33N 49°28' E 000°11'0 0.0
2015-Mar-01 06:33N 49°28' E 000°11'0 0.0
2015-Mar-01 05:33N 49°28' E 000°11'0 0.0
2015-Mar-01 04:33N 49°28' E 000°11'0 0.0
2015-Mar-01 03:33N 49°28' E 000°11'0 0.0
2015-Mar-01 02:33N 49°28' E 000°11'0 0.0
2015-Mar-01 01:33N 49°28' E 000°11'0 0.0
2015-Mar-01 00:33N 49°28' E 000°11'0 0.0
2015-Feb-28 23:33N 49°28' E 000°11'0 0.0
2015-Feb-28 22:33N 49°28' E 000°11'0 0.0
2015-Feb-28 21:33N 49°28' E 000°11'0 0.0
2015-Feb-28 20:33N 49°28' E 000°11'0 0.0
2015-Feb-28 19:33N 49°28' E 000°11'0 0.0
2015-Feb-28 18:33N 49°28' E 000°11'0 0.0
2015-Feb-28 17:33N 49°28' E 000°11'0 0.0
2015-Feb-28 16:33N 49°28' E 000°11'0 0.0
2015-Feb-28 15:33N 49°28' E 000°11'0 0.0
2015-Feb-28 14:33N 49°28' E 000°11'0 0.0
2015-Feb-28 13:33N 49°28' E 000°11'  
Track history (hours):
 
Tides and Currents Weather Stations Pressure Air Temp Water Temp Dewpoint Dewpoint Depression Visibility Wind Speed Wind Dir Waves Ship Positions

Bretagne

Operator: Brittany Ferries

Last reported at 2015-Mar-06 22:23 UTC. Time now 2015-Mar-07 01:46 UTC.
Position N 50°18' W 004°10'.

Length 151 m; beam 27 m.

Type: Ship. MMSI: 227286000.

Date/timePositionNaut miles runAvg speedWind from/ knotsBaromVisibWave heightAir tempDewpointWater temp
2015-Mar-06 22:23N 50°18' W 004°10'4 4.4
2015-Mar-06 21:30N 50°22' W 004°09'0 0.0
2015-Mar-06 20:24N 50°22' W 004°09'4 0.2
2015-Mar-05 21:25N 50°18' W 004°10'4 3.6
2015-Mar-05 20:24N 50°22' W 004°09'0 0.0
2015-Mar-05 19:34N 50°22' W 004°09'1 1.3
2015-Mar-05 18:33N 50°20' W 004°09'101 5.2
2015-Mar-04 23:13N 50°18' W 001°30'1014.8
2015-Mar-04 22:33N 50°25' W 001°20'1413.9
2015-Mar-04 21:33N 50°36' W 001°08'1110.8
2015-Mar-04 20:33N 50°47' W 001°06'2 1.8
2015-Mar-04 19:32N 50°49' W 001°06'0 0.0
2015-Mar-04 18:32N 50°49' W 001°06'0 0.0
2015-Mar-04 17:32N 50°49' W 001°06'0 0.0
2015-Mar-04 16:32N 50°49' W 001°06'0 0.0
2015-Mar-04 15:32N 50°49' W 001°06'0 0.0
2015-Mar-04 14:32N 50°49' W 001°06'0 0.0
2015-Mar-04 13:32N 50°49' W 001°06'0 0.0
2015-Mar-04 12:32N 50°49' W 001°06'0 0.0
2015-Mar-04 11:32N 50°49' W 001°06'0 0.0
2015-Mar-04 10:32N 50°49' W 001°06'0 0.0
2015-Mar-04 09:32N 50°49' W 001°06'0 0.0
2015-Mar-04 08:32N 50°49' W 001°06'0 0.0
2015-Mar-04 07:33N 50°49' W 001°06'1110.8
2015-Mar-04 06:33N 50°38' W 001°06'1715.6
2015-Mar-04 05:29N 50°24' W 001°20'58 1.8
2015-Mar-02 20:32N 49°35' W 000°30'1212.7
2015-Mar-02 19:33N 49°31' W 000°12'1413.5
2015-Mar-02 18:33N 49°28' E 000°08'2 1.7
2015-Mar-02 17:33N 49°29' E 000°11'1 0.6
2015-Mar-02 16:33N 49°28' E 000°11'0 0.0
2015-Mar-02 15:33N 49°28' E 000°11'0 0.0
2015-Mar-02 14:33N 49°28' E 000°11'0 0.0
2015-Mar-02 13:33N 49°28' E 000°11'0 0.0
2015-Mar-02 12:33N 49°28' E 000°11'0 0.0
2015-Mar-02 11:33N 49°28' E 000°11'0 0.0
2015-Mar-02 10:33N 49°28' E 000°11'0 0.0
2015-Mar-02 09:33N 49°28' E 000°11'0 0.0
2015-Mar-02 08:33N 49°28' E 000°11'0 0.0
2015-Mar-02 07:33N 49°28' E 000°11'0 0.0
2015-Mar-02 06:33N 49°28' E 000°11'0 0.0
2015-Mar-02 05:33N 49°28' E 000°11'0 0.0
2015-Mar-02 04:33N 49°28' E 000°11'0 0.0
2015-Mar-02 03:33N 49°28' E 000°11'0 0.0
2015-Mar-02 02:33N 49°28' E 000°11'0 0.0
2015-Mar-02 01:33N 49°28' E 000°11'0 0.0
2015-Mar-02 00:33N 49°28' E 000°11'0 0.0
2015-Mar-01 23:33N 49°28' E 000°11'0 0.0
2015-Mar-01 22:28N 49°28' E 000°11'0 0.0
2015-Mar-01 21:33N 49°28' E 000°11'0 0.0
2015-Mar-01 20:33N 49°28' E 000°11'0 0.0
2015-Mar-01 19:33N 49°28' E 000°11'0 0.0
2015-Mar-01 18:33N 49°28' E 000°11'0 0.0
2015-Mar-01 17:33N 49°28' E 000°11'0 0.0
2015-Mar-01 16:33N 49°28' E 000°11'0 0.0
2015-Mar-01 15:33N 49°28' E 000°11'0 0.0
2015-Mar-01 14:33N 49°28' E 000°11'0 0.0
2015-Mar-01 13:33N 49°28' E 000°11'0 0.0
2015-Mar-01 12:33N 49°28' E 000°11'0 0.0
2015-Mar-01 11:33N 49°28' E 000°11'0 0.0
2015-Mar-01 10:33N 49°28' E 000°11'0 0.0
2015-Mar-01 09:33N 49°28' E 000°11'0 0.0
2015-Mar-01 08:33N 49°28' E 000°11'0 0.0
2015-Mar-01 07:33N 49°28' E 000°11'0 0.0
2015-Mar-01 06:33N 49°28' E 000°11'0 0.0
2015-Mar-01 05:33N 49°28' E 000°11'0 0.0
2015-Mar-01 04:33N 49°28' E 000°11'0 0.0
2015-Mar-01 03:33N 49°28' E 000°11'0 0.0
2015-Mar-01 02:33N 49°28' E 000°11'0 0.0
2015-Mar-01 01:33N 49°28' E 000°11'0 0.0
2015-Mar-01 00:33N 49°28' E 000°11'0 0.0
2015-Feb-28 23:33N 49°28' E 000°11'0 0.0
2015-Feb-28 22:33N 49°28' E 000°11'0 0.0
2015-Feb-28 21:33N 49°28' E 000°11'0 0.0
2015-Feb-28 20:33N 49°28' E 000°11'0 0.0
2015-Feb-28 19:33N 49°28' E 000°11'0 0.0
2015-Feb-28 18:33N 49°28' E 000°11'0 0.0
2015-Feb-28 17:33N 49°28' E 000°11'0 0.0
2015-Feb-28 16:33N 49°28' E 000°11'0 0.0
2015-Feb-28 15:33N 49°28' E 000°11'0 0.0
2015-Feb-28 14:33N 49°28' E 000°11'0 0.0
2015-Feb-28 13:33N 49°28' E 000°11'  

Dump ship's entire track history